createdAt,value
2023-04-25T00:01:00.317Z,48.22
2023-04-25T00:02:00.343Z,48.24
2023-04-25T00:03:00.528Z,48.21
2023-04-25T00:04:00.529Z,48.25
2023-04-25T00:04:59.638Z,48.26
2023-04-25T00:05:59.474Z,48.23
2023-04-25T00:07:00.264Z,48.24
2023-04-25T00:08:00.291Z,48.21
2023-04-25T00:09:00.323Z,48.19
2023-04-25T00:10:00.289Z,48.21
2023-04-25T00:11:00.284Z,48.23
2023-04-25T00:11:59.242Z,48.21
2023-04-25T00:13:00.281Z,48.18
2023-04-25T00:14:00.250Z,48.20
2023-04-25T00:15:00.306Z,48.23
2023-04-25T00:16:00.217Z,48.17
2023-04-25T00:17:00.220Z,48.20
2023-04-25T00:18:00.315Z,48.22
2023-04-25T00:18:59.202Z,48.19
2023-04-25T00:20:00.210Z,48.17
2023-04-25T00:21:00.172Z,48.17
2023-04-25T00:21:59.171Z,48.18
2023-04-25T00:22:59.151Z,48.17
2023-04-25T00:24:00.206Z,48.18
2023-04-25T00:24:59.152Z,48.16
2023-04-25T00:25:59.146Z,48.20
2023-04-25T00:27:00.205Z,48.15
2023-04-25T00:28:00.115Z,48.15
2023-04-25T00:28:59.120Z,48.15
2023-04-25T00:29:59.114Z,48.15
2023-04-25T00:30:59.095Z,48.16
2023-04-25T00:32:00.232Z,48.14
2023-04-25T00:32:59.190Z,48.16
2023-04-25T00:34:00.128Z,48.16
2023-04-25T00:34:59.106Z,48.12
2023-04-25T00:36:00.140Z,48.14
2023-04-25T00:36:59.157Z,48.14
2023-04-25T00:38:00.207Z,48.13
2023-04-25T00:39:00.182Z,48.09
2023-04-25T00:40:00.322Z,48.11
2023-04-25T00:41:00.305Z,48.09
2023-04-25T00:41:59.309Z,48.08
2023-04-25T00:43:00.328Z,48.11
2023-04-25T00:43:59.444Z,48.11
2023-04-25T00:45:00.356Z,48.12
2023-04-25T00:46:00.402Z,48.12
2023-04-25T00:46:59.426Z,48.13
2023-04-25T00:48:00.475Z,48.09
2023-04-25T00:49:00.524Z,48.09
2023-04-25T00:50:00.503Z,48.06
2023-04-25T00:50:59.495Z,48.09
2023-04-25T00:51:59.516Z,48.09
2023-04-25T00:53:00.565Z,48.02
2023-04-25T00:54:00.605Z,48.04
2023-04-25T00:54:59.634Z,48.06
2023-04-25T00:56:00.671Z,48.03
2023-04-25T00:57:00.713Z,48.02
2023-04-25T00:58:00.733Z,48.04
2023-04-25T00:58:59.795Z,48.03
2023-04-25T00:59:59.827Z,48.03
2023-04-25T01:01:00.919Z,48.03
2023-04-25T01:02:00.914Z,48.06
2023-04-25T01:03:01.034Z,48.05
2023-04-25T01:04:00.184Z,48.03
2023-04-25T01:05:00.043Z,48.04
2023-04-25T01:06:01.070Z,48.03
2023-04-25T01:07:01.141Z,48.00
2023-04-25T01:08:01.107Z,48.02
2023-04-25T01:09:01.167Z,48.03
2023-04-25T01:10:01.187Z,48.01
2023-04-25T01:11:01.249Z,48.00
2023-04-25T01:12:00.263Z,48.02
2023-04-25T01:13:00.277Z,48.01
2023-04-25T01:14:00.316Z,48.02
2023-04-25T01:15:01.351Z,48.00
2023-04-25T01:16:01.366Z,48.01
2023-04-25T01:17:00.566Z,48.00
2023-04-25T01:18:01.539Z,48.00
2023-04-25T01:19:00.462Z,48.01
2023-04-25T01:20:01.522Z,47.98
2023-04-25T01:21:01.541Z,47.98
2023-04-25T01:22:00.577Z,47.97
2023-04-25T01:23:01.614Z,47.97
2023-04-25T01:24:01.655Z,47.96
2023-04-25T01:25:01.721Z,47.95
2023-04-25T01:26:01.718Z,47.95
2023-04-25T01:27:01.742Z,47.94
2023-04-25T01:28:01.779Z,47.92
2023-04-25T01:29:01.829Z,47.93
2023-04-25T01:30:00.870Z,47.92
2023-04-25T01:31:01.935Z,47.96
2023-04-25T01:32:02.055Z,47.92
2023-04-25T01:33:02.035Z,47.95
2023-04-25T01:34:02.099Z,47.95
2023-04-25T01:35:02.062Z,47.97
2023-04-25T01:36:02.091Z,47.93
2023-04-25T01:37:01.149Z,47.94
2023-04-25T01:38:01.170Z,47.94
2023-04-25T01:39:01.220Z,47.92
2023-04-25T01:40:02.235Z,47.86
2023-04-25T01:41:02.256Z,47.90
2023-04-25T01:42:02.281Z,47.92
2023-04-25T01:43:01.320Z,47.90
2023-04-25T01:44:02.335Z,47.89
2023-04-25T01:45:02.384Z,47.89
2023-04-25T01:46:02.417Z,47.88
2023-04-25T01:47:02.480Z,47.88
2023-04-25T01:48:02.504Z,47.90
2023-04-25T01:49:02.505Z,47.88
2023-04-25T01:50:02.516Z,47.90
2023-04-25T01:51:02.613Z,47.88
2023-04-25T01:52:01.565Z,47.90
2023-04-25T01:53:02.641Z,47.87
2023-04-25T01:54:02.658Z,47.87
2023-04-25T01:55:02.678Z,47.85
2023-04-25T01:56:02.723Z,47.83
2023-04-25T01:57:01.777Z,47.87
2023-04-25T01:58:01.782Z,47.84
2023-04-25T01:59:01.808Z,47.88
2023-04-25T02:00:01.922Z,47.88
2023-04-25T02:01:02.890Z,47.84
2023-04-25T02:02:02.885Z,47.83
2023-04-25T02:03:02.049Z,47.84
2023-04-25T02:04:02.198Z,47.80
2023-04-25T02:05:03.010Z,47.83
2023-04-25T02:06:02.037Z,47.81
2023-04-25T02:07:02.054Z,47.84
2023-04-25T02:08:02.085Z,47.82
2023-04-25T02:09:03.122Z,47.86
2023-04-25T02:10:02.212Z,47.82
2023-04-25T02:11:03.169Z,47.82
2023-04-25T02:12:02.217Z,47.82
2023-04-25T02:13:03.250Z,47.85
2023-04-25T02:14:02.274Z,47.83
2023-04-25T02:15:03.341Z,47.84
2023-04-25T02:16:03.435Z,47.81
2023-04-25T02:17:02.520Z,47.83
2023-04-25T02:18:02.450Z,47.80
2023-04-25T02:19:03.485Z,47.81
2023-04-25T02:20:02.510Z,47.77
2023-04-25T02:21:03.608Z,47.80
2023-04-25T02:22:02.587Z,47.79
2023-04-25T02:23:02.699Z,47.76
2023-04-25T02:24:03.651Z,47.79
2023-04-25T02:25:02.775Z,47.79
2023-04-25T02:26:02.734Z,47.79
2023-04-25T02:27:03.853Z,47.75
2023-04-25T02:28:03.869Z,47.76
2023-04-25T02:29:02.856Z,47.78
2023-04-25T02:30:03.954Z,47.76
2023-04-25T02:31:03.002Z,47.78
2023-04-25T02:32:03.995Z,47.80
2023-04-25T02:33:04.075Z,47.76
2023-04-25T02:34:03.132Z,47.76
2023-04-25T02:35:03.116Z,47.75
2023-04-25T02:36:04.115Z,47.77
2023-04-25T02:37:03.211Z,47.77
2023-04-25T02:38:04.224Z,47.74
2023-04-25T02:39:04.250Z,47.74
2023-04-25T02:40:03.293Z,47.76
2023-04-25T02:41:03.345Z,47.75
2023-04-25T02:42:04.423Z,47.72
2023-04-25T02:43:04.451Z,47.71
2023-04-25T02:44:04.466Z,47.73
2023-04-25T02:45:04.714Z,47.74
2023-04-25T02:46:04.530Z,47.73
2023-04-25T02:47:03.642Z,47.70
2023-04-25T02:48:04.671Z,47.72
2023-04-25T02:49:04.629Z,47.69
2023-04-25T02:50:04.819Z,47.69
2023-04-25T02:51:03.681Z,47.69
2023-04-25T02:52:04.721Z,47.67
2023-04-25T02:53:04.751Z,47.69
2023-04-25T02:54:03.838Z,47.73
2023-04-25T02:55:04.855Z,47.71
2023-04-25T02:56:04.877Z,47.71
2023-04-25T02:57:04.959Z,47.68
2023-04-25T02:58:04.950Z,47.67
2023-04-25T02:59:04.979Z,47.71
2023-04-25T03:00:05.112Z,47.71
2023-04-25T03:01:04.209Z,47.67
2023-04-25T03:02:04.104Z,47.67
2023-04-25T03:03:05.179Z,47.66
2023-04-25T03:04:05.190Z,47.66
2023-04-25T03:05:05.231Z,47.66
2023-04-25T03:06:04.268Z,47.64
2023-04-25T03:07:04.371Z,47.66
2023-04-25T03:08:05.380Z,47.66
2023-04-25T03:09:05.367Z,47.63
2023-04-25T03:10:05.447Z,47.65
2023-04-25T03:11:05.480Z,47.66
2023-04-25T03:12:04.583Z,47.66
2023-04-25T03:13:05.590Z,47.62
2023-04-25T03:14:05.674Z,47.65
2023-04-25T03:15:05.682Z,47.65
2023-04-25T03:16:05.805Z,47.63
2023-04-25T03:17:04.796Z,47.63
2023-04-25T03:18:05.896Z,47.63
2023-04-25T03:19:05.887Z,47.63
2023-04-25T03:20:05.942Z,47.62
2023-04-25T03:21:05.951Z,47.62
2023-04-25T03:22:06.010Z,47.63
2023-04-25T03:23:06.122Z,47.60
2023-04-25T03:24:06.084Z,47.58
2023-04-25T03:25:06.177Z,47.59
2023-04-25T03:26:05.201Z,47.58
2023-04-25T03:27:05.237Z,47.56
2023-04-25T03:28:06.303Z,47.56
2023-04-25T03:29:06.361Z,47.55
2023-04-25T03:30:06.355Z,47.58
2023-04-25T03:31:06.422Z,47.60
2023-04-25T03:32:06.640Z,47.60
2023-04-25T03:33:05.521Z,47.60
2023-04-25T03:34:05.597Z,47.55
2023-04-25T03:35:06.766Z,47.53
2023-04-25T03:36:05.621Z,47.54
2023-04-25T03:37:05.651Z,47.56
2023-04-25T03:38:05.695Z,47.49
2023-04-25T03:39:06.727Z,47.48
2023-04-25T03:40:06.790Z,47.46
2023-04-25T03:41:06.808Z,47.45
2023-04-25T03:42:06.894Z,47.42
2023-04-25T03:43:05.884Z,47.40
2023-04-25T03:44:06.918Z,47.38
2023-04-25T03:45:05.995Z,47.37
2023-04-25T03:46:06.059Z,47.32
2023-04-25T03:47:06.061Z,47.33
2023-04-25T03:48:06.133Z,47.31
2023-04-25T03:49:07.150Z,47.28
2023-04-25T03:50:07.164Z,47.25
2023-04-25T03:51:07.163Z,47.25
2023-04-25T03:52:06.216Z,47.23
2023-04-25T03:53:07.306Z,47.23
2023-04-25T03:54:06.263Z,47.22
2023-04-25T03:55:07.315Z,47.19
2023-04-25T03:56:06.314Z,47.16
2023-04-25T03:57:06.326Z,47.17
2023-04-25T03:58:06.362Z,47.15
2023-04-25T03:59:07.443Z,47.15
2023-04-25T04:00:07.460Z,47.12
2023-04-25T04:01:07.429Z,47.14
2023-04-25T04:02:07.491Z,47.12
2023-04-25T04:03:07.604Z,47.11
2023-04-25T04:04:07.851Z,47.11
2023-04-25T04:05:06.820Z,47.10
2023-04-25T04:06:07.616Z,47.07
2023-04-25T04:07:06.569Z,47.09
2023-04-25T04:08:07.594Z,47.06
2023-04-25T04:09:07.610Z,47.04
2023-04-25T04:10:07.642Z,47.05
2023-04-25T04:11:06.659Z,47.04
2023-04-25T04:12:07.720Z,47.03
2023-04-25T04:13:07.710Z,47.01
2023-04-25T04:14:07.718Z,47.01
2023-04-25T04:15:07.803Z,47.03
2023-04-25T04:16:07.805Z,47.02
2023-04-25T04:17:07.786Z,47.00
2023-04-25T04:18:07.839Z,46.99
2023-04-25T04:19:07.814Z,46.97
2023-04-25T04:20:07.893Z,46.99
2023-04-25T04:21:07.895Z,46.97
2023-04-25T04:22:06.888Z,46.95
2023-04-25T04:23:06.930Z,46.94
2023-04-25T04:24:07.957Z,46.96
2023-04-25T04:25:07.970Z,46.92
2023-04-25T04:26:08.010Z,46.95
2023-04-25T04:27:07.034Z,46.91
2023-04-25T04:28:08.047Z,46.91
2023-04-25T04:29:08.079Z,46.90
2023-04-25T04:30:08.064Z,46.91
2023-04-25T04:31:08.130Z,46.89
2023-04-25T04:32:07.169Z,46.91
2023-04-25T04:33:08.191Z,46.91
2023-04-25T04:34:07.227Z,46.87
2023-04-25T04:35:08.310Z,46.86
2023-04-25T04:36:07.194Z,46.84
2023-04-25T04:37:07.246Z,46.86
2023-04-25T04:38:08.248Z,46.87
2023-04-25T04:39:08.252Z,46.84
2023-04-25T04:40:07.537Z,46.85
2023-04-25T04:41:07.408Z,46.82
2023-04-25T04:42:08.309Z,46.83
2023-04-25T04:43:07.364Z,46.81
2023-04-25T04:44:08.779Z,46.80
2023-04-25T04:45:08.373Z,46.82
2023-04-25T04:46:08.505Z,46.80
2023-04-25T04:47:07.438Z,46.79
2023-04-25T04:48:07.566Z,46.79
2023-04-25T04:49:07.476Z,46.77
2023-04-25T04:50:08.505Z,46.77
2023-04-25T04:51:08.560Z,46.76
2023-04-25T04:52:08.581Z,46.76
2023-04-25T04:53:08.575Z,46.75
2023-04-25T04:54:07.681Z,46.72
2023-04-25T04:55:08.585Z,46.70
2023-04-25T04:56:08.621Z,46.71
2023-04-25T04:57:07.638Z,46.72
2023-04-25T04:58:07.620Z,46.71
2023-04-25T04:59:08.645Z,46.69
2023-04-25T05:00:08.631Z,46.67
2023-04-25T05:01:07.736Z,46.68
2023-04-25T05:02:08.689Z,46.67
2023-04-25T05:03:08.856Z,46.65
2023-04-25T05:04:08.899Z,46.67
2023-04-25T05:05:07.708Z,46.66
2023-04-25T05:06:07.730Z,46.67
2023-04-25T05:07:07.792Z,46.64
2023-04-25T05:08:08.764Z,46.66
2023-04-25T05:09:07.829Z,46.66
2023-04-25T05:10:08.900Z,46.64
2023-04-25T05:11:08.816Z,46.69
2023-04-25T05:12:07.839Z,46.64
2023-04-25T05:13:08.844Z,46.64
2023-04-25T05:14:07.896Z,46.66
2023-04-25T05:15:07.857Z,46.62
2023-04-25T05:16:08.893Z,46.63
2023-04-25T05:17:07.862Z,46.62
2023-04-25T05:18:09.249Z,46.61
2023-04-25T05:19:08.078Z,46.61
2023-04-25T05:20:09.170Z,46.60
2023-04-25T05:21:08.972Z,46.62
2023-04-25T05:22:08.984Z,46.60
2023-04-25T05:23:07.905Z,46.58
2023-04-25T05:24:08.922Z,46.56
2023-04-25T05:25:08.867Z,46.54
2023-04-25T05:26:08.897Z,46.56
2023-04-25T05:27:08.886Z,46.52
2023-04-25T05:28:08.890Z,46.55
2023-04-25T05:29:08.907Z,46.54
2023-04-25T05:30:08.919Z,46.53
2023-04-25T05:31:07.923Z,46.53
2023-04-25T05:32:09.041Z,46.51
2023-04-25T05:33:08.092Z,46.50
2023-04-25T05:34:08.948Z,46.51
2023-04-25T05:35:08.973Z,46.47
2023-04-25T05:36:08.977Z,46.50
2023-04-25T05:37:08.971Z,46.47
2023-04-25T05:38:07.984Z,46.47
2023-04-25T05:39:08.958Z,46.42
2023-04-25T05:40:07.996Z,46.41
2023-04-25T05:41:07.996Z,46.40
2023-04-25T05:42:07.999Z,46.40
2023-04-25T05:43:08.976Z,46.37
2023-04-25T05:44:09.021Z,46.35
2023-04-25T05:45:08.975Z,46.37
2023-04-25T05:46:08.973Z,46.39
2023-04-25T05:47:08.988Z,46.38
2023-04-25T05:48:09.020Z,46.39
2023-04-25T05:49:08.068Z,46.38
2023-04-25T05:50:09.658Z,46.39
2023-04-25T05:51:08.097Z,46.36
2023-04-25T05:52:08.196Z,46.35
2023-04-25T05:53:09.217Z,46.50
2023-04-25T05:54:09.276Z,46.47
2023-04-25T05:55:09.348Z,46.52
2023-04-25T05:56:09.332Z,46.63
2023-04-25T05:57:08.432Z,46.50
2023-04-25T05:58:09.442Z,46.23
2023-04-25T05:59:09.520Z,46.28
2023-04-25T06:00:09.685Z,46.49
2023-04-25T06:01:08.579Z,46.51
2023-04-25T06:02:08.940Z,46.51
2023-04-25T06:03:09.767Z,46.54
2023-04-25T06:04:10.030Z,46.48
2023-04-25T06:05:10.253Z,46.49
2023-04-25T06:06:09.818Z,46.44
2023-04-25T06:07:09.960Z,46.45
2023-04-25T06:08:09.887Z,46.52
2023-04-25T06:09:09.918Z,46.53
2023-04-25T06:10:09.895Z,46.51
2023-04-25T06:11:11.022Z,46.55
2023-04-25T06:12:09.997Z,46.66
2023-04-25T06:13:09.912Z,46.58
2023-04-25T06:14:09.914Z,46.76
2023-04-25T06:15:20.080Z,46.74
2023-04-25T06:16:09.995Z,46.78
2023-04-25T06:17:08.899Z,46.80
2023-04-25T06:18:09.953Z,46.83
2023-04-25T06:19:08.884Z,46.89
2023-04-25T06:20:09.888Z,46.95
2023-04-25T06:21:08.895Z,46.95
2023-04-25T06:22:09.858Z,46.90
2023-04-25T06:23:08.890Z,47.02
2023-04-25T06:24:09.882Z,47.06
2023-04-25T06:25:08.831Z,47.15
2023-04-25T06:26:09.854Z,47.20
2023-04-25T06:27:08.936Z,47.49
2023-04-25T06:28:09.927Z,47.39
2023-04-25T06:29:09.960Z,47.30
2023-04-25T06:30:10.030Z,47.36
2023-04-25T06:31:09.105Z,47.43
2023-04-25T06:32:09.112Z,47.54
2023-04-25T06:33:10.167Z,47.55
2023-04-25T06:34:10.185Z,47.75
2023-04-25T06:35:10.235Z,48.00
2023-04-25T06:36:10.294Z,47.78
2023-04-25T06:37:10.556Z,47.83
2023-04-25T06:38:09.360Z,47.89
2023-04-25T06:39:10.442Z,47.77
2023-04-25T06:40:09.478Z,47.96
2023-04-25T06:41:09.489Z,48.08
2023-04-25T06:42:09.686Z,47.99
2023-04-25T06:43:16.586Z,47.96
2023-04-25T06:44:10.567Z,48.02
2023-04-25T06:45:09.559Z,48.25
2023-04-25T06:46:10.568Z,48.15
2023-04-25T06:47:10.551Z,48.20
2023-04-25T06:48:09.588Z,48.32
2023-04-25T06:49:09.557Z,48.36
2023-04-25T06:50:10.524Z,48.50
2023-04-25T06:51:09.508Z,48.56
2023-04-25T06:52:10.686Z,48.66
2023-04-25T06:53:10.493Z,48.54
2023-04-25T06:54:10.496Z,48.41
2023-04-25T06:55:10.526Z,48.41
2023-04-25T06:56:09.530Z,48.58
2023-04-25T06:57:10.668Z,48.45
2023-04-25T06:58:09.478Z,48.52
2023-04-25T06:59:10.473Z,48.52
2023-04-25T07:00:10.468Z,48.51
2023-04-25T07:01:10.508Z,48.55
2023-04-25T07:02:09.489Z,48.57
2023-04-25T07:03:10.627Z,48.66
2023-04-25T07:04:10.682Z,48.63
2023-04-25T07:05:10.435Z,48.66
2023-04-25T07:06:10.430Z,48.66
2023-04-25T07:07:10.423Z,48.68
2023-04-25T07:08:10.425Z,48.75
2023-04-25T07:09:10.406Z,48.72
2023-04-25T07:10:10.397Z,48.75
2023-04-25T07:11:10.388Z,48.86
2023-04-25T07:12:10.420Z,48.83
2023-04-25T07:13:09.417Z,48.84
2023-04-25T07:14:09.483Z,48.88
2023-04-25T07:15:10.557Z,48.94
2023-04-25T07:16:10.633Z,48.93
2023-04-25T07:17:10.663Z,48.93
2023-04-25T07:18:10.766Z,48.95
2023-04-25T07:19:10.789Z,48.97
2023-04-25T07:20:10.843Z,48.94
2023-04-25T07:21:10.906Z,48.88
2023-04-25T07:22:09.974Z,48.97
2023-04-25T07:23:11.040Z,48.99
2023-04-25T07:24:11.121Z,48.95
2023-04-25T07:25:10.136Z,49.01
2023-04-25T07:26:11.186Z,49.08
2023-04-25T07:27:10.218Z,49.04
2023-04-25T07:28:11.285Z,49.01
2023-04-25T07:29:11.283Z,49.02
2023-04-25T07:30:11.294Z,48.96
2023-04-25T07:31:11.331Z,49.04
2023-04-25T07:32:10.494Z,49.02
2023-04-25T07:33:11.370Z,49.02
2023-04-25T07:34:10.379Z,49.03
2023-04-25T07:35:11.359Z,49.03
2023-04-25T07:36:11.357Z,48.99
2023-04-25T07:37:11.381Z,49.01
2023-04-25T07:38:11.403Z,48.98
2023-04-25T07:39:11.363Z,49.06
2023-04-25T07:40:11.346Z,48.95
2023-04-25T07:41:10.360Z,48.88
2023-04-25T07:42:10.354Z,48.96
2023-04-25T07:43:11.357Z,48.93
2023-04-25T07:44:10.372Z,49.00
2023-04-25T07:45:11.369Z,48.94
2023-04-25T07:46:11.462Z,49.02
2023-04-25T07:47:10.699Z,49.08
2023-04-25T07:48:11.393Z,49.38
2023-04-25T07:49:10.400Z,49.61
2023-04-25T07:50:11.461Z,49.31
2023-04-25T07:51:11.462Z,49.17
2023-04-25T07:52:10.512Z,49.09
2023-04-25T07:53:10.704Z,49.13
2023-04-25T07:54:10.530Z,49.10
2023-04-25T07:55:11.556Z,49.10
2023-04-25T07:56:10.561Z,48.98
2023-04-25T07:57:11.615Z,48.91
2023-04-25T07:58:11.607Z,48.94
2023-04-25T07:59:11.645Z,48.95
2023-04-25T08:00:11.671Z,48.95
2023-04-25T08:01:11.656Z,48.97
2023-04-25T08:02:11.739Z,48.95
2023-04-25T08:03:11.888Z,48.96
2023-04-25T08:04:10.804Z,48.97
2023-04-25T08:05:10.895Z,48.98
2023-04-25T08:06:11.153Z,48.96
2023-04-25T08:07:10.774Z,48.94
2023-04-25T08:08:11.775Z,48.99
2023-04-25T08:09:11.776Z,48.95
2023-04-25T08:10:11.790Z,48.99
2023-04-25T08:11:11.880Z,48.94
2023-04-25T08:12:11.853Z,48.95
2023-04-25T08:13:11.851Z,48.90
2023-04-25T08:14:11.878Z,48.94
2023-04-25T08:15:10.862Z,48.94
2023-04-25T08:16:11.961Z,48.95
2023-04-25T08:17:11.929Z,48.90
2023-04-25T08:18:10.952Z,48.97
2023-04-25T08:19:11.917Z,48.88
2023-04-25T08:20:10.952Z,48.83
2023-04-25T08:21:11.959Z,48.85
2023-04-25T08:22:10.985Z,48.89
2023-04-25T08:23:12.001Z,48.83
2023-04-25T08:24:12.037Z,48.86
2023-04-25T08:25:12.079Z,48.83
2023-04-25T08:26:12.058Z,48.83
2023-04-25T08:27:12.128Z,48.83
2023-04-25T08:28:12.104Z,48.79
2023-04-25T08:29:12.125Z,48.81
2023-04-25T08:30:11.196Z,48.81
2023-04-25T08:31:11.222Z,48.76
2023-04-25T08:32:12.248Z,48.75
2023-04-25T08:33:11.300Z,48.69
2023-04-25T08:34:12.258Z,48.74
2023-04-25T08:35:12.269Z,48.68
2023-04-25T08:36:12.288Z,48.68
2023-04-25T08:37:12.349Z,48.70
2023-04-25T08:38:11.337Z,48.69
2023-04-25T08:39:11.350Z,48.67
2023-04-25T08:40:11.364Z,48.68
2023-04-25T08:41:12.411Z,48.67
2023-04-25T08:42:12.726Z,48.70
2023-04-25T08:43:12.512Z,48.86
2023-04-25T08:44:11.459Z,48.92
2023-04-25T08:45:12.518Z,49.13
2023-04-25T08:46:12.566Z,48.94
2023-04-25T08:47:11.692Z,47.90
2023-04-25T08:48:12.706Z,45.32
2023-04-25T08:49:12.680Z,44.76
2023-04-25T08:50:12.692Z,45.58
2023-04-25T08:51:12.743Z,45.66
2023-04-25T08:52:12.739Z,45.51
2023-04-25T08:53:11.784Z,45.63
2023-04-25T08:54:23.429Z,46.48
2023-04-25T08:55:12.835Z,46.74
2023-04-25T08:56:11.868Z,45.81
2023-04-25T08:57:11.820Z,45.51
2023-04-25T08:58:13.209Z,45.40
2023-04-25T08:59:12.818Z,44.89
2023-04-25T09:00:11.786Z,44.72
2023-04-25T09:01:13.067Z,44.39
2023-04-25T09:02:11.915Z,43.93
2023-04-25T09:03:12.878Z,43.41
2023-04-25T09:04:11.892Z,43.15
2023-04-25T09:05:12.762Z,42.81
2023-04-25T09:06:12.754Z,42.57
2023-04-25T09:07:12.760Z,42.22
2023-04-25T09:08:12.770Z,42.20
2023-04-25T09:09:12.729Z,42.33
2023-04-25T09:10:12.806Z,42.19
2023-04-25T09:11:12.715Z,42.12
2023-04-25T09:12:11.712Z,42.11
2023-04-25T09:13:12.726Z,42.29
2023-04-25T09:14:12.718Z,42.21
2023-04-25T09:15:11.909Z,42.19
2023-04-25T09:16:12.846Z,42.56
2023-04-25T09:17:12.858Z,42.62
2023-04-25T09:18:12.882Z,42.93
2023-04-25T09:19:11.950Z,43.28
2023-04-25T09:20:12.014Z,43.07
2023-04-25T09:21:14.666Z,42.89
2023-04-25T09:22:12.035Z,42.81
2023-04-25T09:23:12.981Z,42.41
2023-04-25T09:24:12.971Z,42.84
2023-04-25T09:25:11.970Z,42.95
2023-04-25T09:26:12.976Z,42.76
2023-04-25T09:27:12.999Z,42.64
2023-04-25T09:28:11.971Z,42.72
2023-04-25T09:29:11.988Z,42.31
2023-04-25T09:30:12.934Z,42.52
2023-04-25T09:31:11.930Z,42.64
2023-04-25T09:32:13.069Z,42.75
2023-04-25T09:33:11.954Z,42.57
2023-04-25T09:34:12.917Z,42.59
2023-04-25T09:35:12.930Z,42.59
2023-04-25T09:36:12.051Z,42.51
2023-04-25T09:37:12.889Z,42.46
2023-04-25T09:38:12.887Z,42.40
2023-04-25T09:39:11.881Z,42.31
2023-04-25T09:40:11.878Z,42.25
2023-04-25T09:41:12.901Z,42.24
2023-04-25T09:42:12.988Z,42.17
2023-04-25T09:43:12.865Z,41.95
2023-04-25T09:44:12.852Z,41.98
2023-04-25T09:45:12.839Z,41.90
2023-04-25T09:46:12.893Z,41.92
2023-04-25T09:47:12.849Z,41.82
2023-04-25T09:48:13.249Z,39.58
2023-04-25T09:49:12.843Z,40.00
2023-04-25T09:50:11.801Z,40.79
2023-04-25T09:51:12.802Z,40.25
2023-04-25T09:52:12.830Z,41.00
2023-04-25T09:53:13.232Z,40.77
2023-04-25T09:54:12.804Z,41.14
2023-04-25T09:55:12.791Z,41.37
2023-04-25T09:56:12.772Z,41.28
2023-04-25T09:57:11.769Z,41.16
2023-04-25T09:58:12.780Z,41.09
2023-04-25T09:59:12.761Z,41.10
2023-04-25T10:00:12.757Z,41.28
2023-04-25T10:01:12.755Z,41.25
2023-04-25T10:02:12.808Z,41.25
2023-04-25T10:03:12.828Z,41.20
2023-04-25T10:04:11.812Z,41.10
2023-04-25T10:05:12.816Z,41.06
2023-04-25T10:06:11.711Z,41.13
2023-04-25T10:07:11.723Z,40.84
2023-04-25T10:08:11.783Z,40.85
2023-04-25T10:09:12.730Z,40.66
2023-04-25T10:10:11.766Z,40.69
2023-04-25T10:11:12.817Z,40.51
2023-04-25T10:12:11.869Z,40.69
2023-04-25T10:13:12.915Z,40.53
2023-04-25T10:14:12.959Z,40.60
2023-04-25T10:15:12.999Z,40.21
2023-04-25T10:16:12.097Z,40.55
2023-04-25T10:17:12.113Z,40.33
2023-04-25T10:18:12.173Z,39.95
2023-04-25T10:19:13.234Z,40.38
2023-04-25T10:20:13.250Z,40.56
2023-04-25T10:21:13.301Z,40.66
2023-04-25T10:22:13.349Z,40.62
2023-04-25T10:23:13.408Z,40.36
2023-04-25T10:24:12.638Z,40.50
2023-04-25T10:25:12.526Z,40.43
2023-04-25T10:26:12.570Z,40.54
2023-04-25T10:27:13.613Z,40.61
2023-04-25T10:28:13.663Z,40.36
2023-04-25T10:29:13.716Z,40.35
2023-04-25T10:30:13.804Z,40.29
2023-04-25T10:31:12.909Z,40.54
2023-04-25T10:32:12.891Z,40.51
2023-04-25T10:33:13.956Z,40.53
2023-04-25T10:34:12.967Z,40.39
2023-04-25T10:35:13.997Z,40.42
2023-04-25T10:36:14.007Z,40.47
2023-04-25T10:37:13.065Z,40.21
2023-04-25T10:38:14.090Z,40.33
2023-04-25T10:39:14.105Z,40.23
2023-04-25T10:40:13.162Z,40.33
2023-04-25T10:41:14.169Z,40.44
2023-04-25T10:42:14.217Z,39.71
2023-04-25T10:43:15.131Z,40.38
2023-04-25T10:44:14.221Z,40.38
2023-04-25T10:45:15.250Z,40.56
2023-04-25T10:46:14.315Z,40.53
2023-04-25T10:47:13.489Z,40.64
2023-04-25T10:48:14.787Z,40.50
2023-04-25T10:49:16.157Z,40.63
2023-04-25T10:50:14.401Z,40.62
2023-04-25T10:51:13.351Z,40.61
2023-04-25T10:52:13.362Z,40.54
2023-04-25T10:53:13.376Z,40.63
2023-04-25T10:54:14.341Z,40.63
2023-04-25T10:55:13.334Z,40.75
2023-04-25T10:56:14.473Z,40.71
2023-04-25T10:57:14.315Z,40.72
2023-04-25T10:58:14.313Z,40.75
2023-04-25T10:59:14.328Z,40.80
2023-04-25T11:00:13.308Z,40.82
2023-04-25T11:01:14.298Z,40.81
2023-04-25T11:02:14.638Z,40.87
2023-04-25T11:03:14.403Z,40.87
2023-04-25T11:04:13.409Z,40.94
2023-04-25T11:05:13.256Z,40.92
2023-04-25T11:06:13.255Z,40.94
2023-04-25T11:07:14.278Z,41.00
2023-04-25T11:08:14.257Z,40.99
2023-04-25T11:09:14.297Z,41.02
2023-04-25T11:10:13.266Z,41.01
2023-04-25T11:11:13.222Z,41.00
2023-04-25T11:12:13.287Z,41.08
2023-04-25T11:13:14.214Z,41.08
2023-04-25T11:14:14.209Z,41.08
2023-04-25T11:15:14.225Z,41.12
2023-04-25T11:16:13.632Z,41.15
2023-04-25T11:17:14.431Z,41.22
2023-04-25T11:18:13.171Z,41.18
2023-04-25T11:19:14.169Z,41.24
2023-04-25T11:20:14.153Z,41.25
2023-04-25T11:21:14.151Z,41.19
2023-04-25T11:22:13.156Z,41.23
2023-04-25T11:23:13.170Z,41.21
2023-04-25T11:24:14.130Z,41.17
2023-04-25T11:25:13.138Z,41.23
2023-04-25T11:26:13.155Z,41.23
2023-04-25T11:27:14.147Z,41.24
2023-04-25T11:28:14.198Z,41.26
2023-04-25T11:29:14.222Z,41.28
2023-04-25T11:30:13.240Z,41.30
2023-04-25T11:31:13.311Z,41.30
2023-04-25T11:32:13.401Z,41.36
2023-04-25T11:33:13.473Z,41.33
2023-04-25T11:34:14.459Z,41.34
2023-04-25T11:35:14.488Z,41.36
2023-04-25T11:36:14.561Z,41.33
2023-04-25T11:37:14.576Z,41.35
2023-04-25T11:38:14.782Z,41.39
2023-04-25T11:39:14.693Z,41.39
2023-04-25T11:40:14.718Z,41.39
2023-04-25T11:41:13.780Z,41.34
2023-04-25T11:42:14.281Z,41.42
2023-04-25T11:43:14.877Z,41.39
2023-04-25T11:44:14.957Z,41.45
2023-04-25T11:45:14.964Z,41.42
2023-04-25T11:46:15.077Z,41.49
2023-04-25T11:47:15.067Z,41.46
2023-04-25T11:48:15.359Z,41.47
2023-04-25T11:49:14.182Z,41.46
2023-04-25T11:50:14.263Z,41.49
2023-04-25T11:51:15.287Z,41.50
2023-04-25T11:52:15.331Z,41.54
2023-04-25T11:53:15.391Z,41.54
2023-04-25T11:54:15.423Z,41.51
2023-04-25T11:55:15.473Z,41.49
2023-04-25T11:56:14.502Z,41.49
2023-04-25T11:57:15.565Z,41.53
2023-04-25T11:58:15.600Z,41.54
2023-04-25T11:59:15.667Z,41.55
2023-04-25T12:00:18.366Z,41.61
2023-04-25T12:01:14.688Z,41.58
2023-04-25T12:02:15.830Z,41.60
2023-04-25T12:03:14.793Z,41.61
2023-04-25T12:04:15.936Z,41.61
2023-04-25T12:05:30.411Z,41.63
2023-04-25T12:06:15.791Z,41.63
2023-04-25T12:07:14.919Z,41.66
2023-04-25T12:08:15.958Z,41.63
2023-04-25T12:09:15.023Z,41.64
2023-04-25T12:10:16.075Z,41.67
2023-04-25T12:11:15.122Z,41.65
2023-04-25T12:12:15.190Z,41.70
2023-04-25T12:13:16.218Z,41.66
2023-04-25T12:14:15.258Z,41.68
2023-04-25T12:15:16.315Z,41.71
2023-04-25T12:16:16.573Z,41.73
2023-04-25T12:17:16.422Z,41.72
2023-04-25T12:18:16.495Z,41.71
2023-04-25T12:19:15.518Z,41.75
2023-04-25T12:20:15.570Z,41.73
2023-04-25T12:21:16.634Z,41.79
2023-04-25T12:22:15.682Z,41.76
2023-04-25T12:23:16.755Z,41.85
2023-04-25T12:24:16.780Z,41.86
2023-04-25T12:25:16.810Z,41.89
2023-04-25T12:26:16.878Z,41.88
2023-04-25T12:27:16.915Z,41.92
2023-04-25T12:28:15.969Z,41.92
2023-04-25T12:29:16.028Z,41.94
2023-04-25T12:30:17.060Z,41.95
2023-04-25T12:31:17.301Z,41.94
2023-04-25T12:32:17.223Z,41.96
2023-04-25T12:33:17.336Z,41.95
2023-04-25T12:34:16.249Z,42.00
2023-04-25T12:35:17.318Z,41.98
2023-04-25T12:36:17.346Z,41.98
2023-04-25T12:37:17.439Z,41.98
2023-04-25T12:38:16.435Z,42.00
2023-04-25T12:39:16.489Z,42.03
2023-04-25T12:40:16.563Z,42.03
2023-04-25T12:41:17.582Z,42.07
2023-04-25T12:42:17.624Z,42.04
2023-04-25T12:43:17.682Z,42.10
2023-04-25T12:44:16.712Z,42.11
2023-04-25T12:45:17.750Z,42.12
2023-04-25T12:46:17.841Z,42.10
2023-04-25T12:47:16.875Z,42.13
2023-04-25T12:48:17.949Z,42.15
2023-04-25T12:49:19.326Z,42.11
2023-04-25T12:50:17.946Z,42.11
2023-04-25T12:51:17.950Z,42.12
2023-04-25T12:52:16.932Z,42.11
2023-04-25T12:53:17.910Z,42.14